Time;durP1;ratioP1;P1;durP2;ratioP2;P2;SDS_P1;SDS_P2;PMS_P1;PMS_P2;Temp;Humidity;BMP_temperature;BMP_pressure;BME280_temperature;BME280_humidity;BME280_pressure;Samples;Min_cycle;Max_cycle;Signal;HPM_P1;HPM_P2
2023/12/17 00:01:55;;;;;;;0.00;0.00;;;;;;;6.34;100.00;101412.88;5116624;28;20261;-53
2023/12/17 00:04:42;;;;;;;0.00;0.00;;;;;;;6.23;100.00;101412.13;5116427;28;20295;-53
2023/12/17 00:07:29;;;;;;;0.10;0.10;;;;;;;6.20;100.00;101410.38;5116723;28;20198;-53
2023/12/17 00:10:18;;;;;;;0.07;0.07;;;;;;;6.06;100.00;101403.50;5116014;28;20191;-53
2023/12/17 00:13:07;;;;;;;0.10;0.10;;;;;;;5.84;100.00;101416.81;5116625;28;20204;-52
2023/12/17 00:15:54;;;;;;;0.10;0.10;;;;;;;5.85;100.00;101426.44;5116595;28;20183;-53
2023/12/17 00:18:41;;;;;;;0.00;0.00;;;;;;;6.19;100.00;101427.06;5116071;28;20272;-53
2023/12/17 00:21:27;;;;;;;0.00;0.00;;;;;;;6.28;100.00;101416.47;5116299;28;20236;-52
2023/12/17 00:24:14;;;;;;;0.00;0.00;;;;;;;6.17;100.00;101420.94;5116423;28;20279;-52
2023/12/17 00:27:01;;;;;;;0.10;0.10;;;;;;;6.12;100.00;101403.47;5114878;28;20198;-53
2023/12/17 00:29:50;;;;;;;0.07;0.07;;;;;;;6.00;100.00;101400.06;5116343;28;20668;-53
2023/12/17 00:32:36;;;;;;;0.00;0.00;;;;;;;6.16;100.00;101389.38;5116234;28;20719;-52
2023/12/17 00:35:23;;;;;;;0.00;0.00;;;;;;;6.29;100.00;101383.97;5115987;28;20202;-52
2023/12/17 00:38:10;;;;;;;0.10;0.10;;;;;;;6.16;100.00;101386.75;5116136;28;20684;-52
2023/12/17 00:40:57;;;;;;;0.10;0.10;;;;;;;6.34;100.00;101393.56;5115086;28;20198;-53
2023/12/17 00:43:44;;;;;;;0.10;0.10;;;;;;;6.24;100.00;101396.31;5115770;28;20210;-53
2023/12/17 00:46:32;;;;;;;0.10;0.10;;;;;;;6.16;100.00;101398.13;5115968;28;20190;-53
2023/12/17 00:49:19;;;;;;;0.00;0.00;;;;;;;6.13;100.00;101395.53;5116128;28;20198;-52
2023/12/17 00:52:06;;;;;;;0.10;0.10;;;;;;;6.14;100.00;101394.66;5115803;28;20198;-53
2023/12/17 00:54:53;;;;;;;0.10;0.10;;;;;;;6.06;100.00;101385.09;5115906;28;20260;-53
2023/12/17 00:57:40;;;;;;;0.00;0.00;;;;;;;5.95;100.00;101398.34;5114845;28;20198;-52
2023/12/17 01:00:27;;;;;;;0.10;0.10;;;;;;;6.02;100.00;101402.66;5115556;28;20194;-53
2023/12/17 01:03:15;;;;;;;0.10;0.10;;;;;;;5.93;100.00;101401.00;5115690;28;20213;-53
2023/12/17 01:06:02;;;;;;;0.00;0.00;;;;;;;5.79;100.00;101404.56;5115496;28;20194;-53
2023/12/17 01:08:49;;;;;;;0.10;0.10;;;;;;;5.72;100.00;101407.28;5115502;28;20189;-53
2023/12/17 01:11:35;;;;;;;0.00;0.00;;;;;;;5.72;100.00;101409.03;5114094;28;20206;-53
2023/12/17 01:14:22;;;;;;;0.10;0.10;;;;;;;5.78;100.00;101410.72;5115513;28;20234;-53
2023/12/17 01:17:09;;;;;;;0.10;0.10;;;;;;;5.89;100.00;101419.44;5115367;28;20692;-53
2023/12/17 01:19:57;;;;;;;0.00;0.00;;;;;;;5.97;100.00;101412.34;5115482;28;20213;-52
2023/12/17 01:22:44;;;;;;;0.00;0.00;;;;;;;5.93;100.00;101410.63;5115420;28;20205;-53
2023/12/17 01:25:31;;;;;;;0.10;0.10;;;;;;;5.86;100.00;101404.53;5113967;28;20558;-53
2023/12/17 01:28:18;;;;;;;0.00;0.00;;;;;;;5.71;100.00;101413.41;5115301;28;20194;-53
2023/12/17 01:31:05;;;;;;;0.10;0.10;;;;;;;6.01;100.00;101425.47;5115151;28;20268;-52
2023/12/17 01:33:52;;;;;;;0.00;0.00;;;;;;;5.68;100.00;101413.41;5114916;28;20185;-52
2023/12/17 01:36:41;;;;;;;0.00;0.00;;;;;;;5.89;100.00;101422.06;5114947;28;20194;-53
2023/12/17 01:39:28;;;;;;;0.10;0.10;;;;;;;5.96;100.00;101424.63;5114949;28;20190;-53
2023/12/17 01:42:15;;;;;;;0.10;0.10;;;;;;;5.85;100.00;101421.19;5113696;28;20273;-53
2023/12/17 01:45:01;;;;;;;0.00;0.00;;;;;;;5.73;100.00;101419.53;5114715;28;20237;-52
2023/12/17 01:47:49;;;;;;;0.00;0.00;;;;;;;5.73;100.00;101422.16;5114790;28;20263;-52
2023/12/17 01:50:36;;;;;;;0.00;0.00;;;;;;;5.81;100.00;101421.25;5114787;28;20190;-53
2023/12/17 01:53:24;;;;;;;0.00;0.00;;;;;;;5.69;100.00;101420.44;5114742;28;20198;-53
2023/12/17 01:56:13;;;;;;;0.00;0.00;;;;;;;5.50;100.00;101416.22;5113420;28;20197;-52
2023/12/17 01:59:01;;;;;;;0.00;0.00;;;;;;;5.56;100.00;101415.28;5114598;28;20243;-52
2023/12/17 02:01:48;;;;;;;0.00;0.00;;;;;;;5.50;100.00;101421.47;5114415;28;20197;-52
2023/12/17 02:04:35;;;;;;;0.00;0.00;;;;;;;5.50;100.00;101418.84;5114294;28;20218;-52
2023/12/17 02:07:22;;;;;;;0.10;0.10;;;;;;;5.43;100.00;101417.13;5114536;28;20194;-52
2023/12/17 02:10:11;;;;;;;0.00;0.00;;;;;;;5.51;100.00;101420.59;5114338;28;20213;-52
2023/12/17 02:12:59;;;;;;;0.10;0.10;;;;;;;5.54;100.00;101410.03;5114569;28;20198;-53
2023/12/17 02:15:46;;;;;;;0.10;0.10;;;;;;;5.62;100.00;101405.59;5114238;28;20189;-53
2023/12/17 02:18:33;;;;;;;0.00;0.00;;;;;;;5.55;100.00;101405.66;5113449;28;20226;-53
2023/12/17 02:21:19;;;;;;;0.00;0.00;;;;;;;5.70;100.00;101405.56;5114331;28;20198;-53
2023/12/17 02:24:08;;;;;;;0.00;0.00;;;;;;;5.75;100.00;101406.38;5114083;28;20269;-52
2023/12/17 02:26:55;;;;;;;0.10;0.10;;;;;;;5.79;100.00;101402.84;5112902;28;20188;-52
2023/12/17 02:29:42;;;;;;;0.00;0.00;;;;;;;5.72;100.00;101402.00;5114149;28;20181;-52
2023/12/17 02:32:29;;;;;;;0.00;0.00;;;;;;;5.50;100.00;101392.56;5114231;28;20198;-53
2023/12/17 02:35:16;;;;;;;0.00;0.00;;;;;;;5.32;100.00;101384.78;5113794;28;20194;-52
2023/12/17 02:38:03;;;;;;;0.10;0.10;;;;;;;5.30;100.00;101384.78;5113871;28;20198;-52
2023/12/17 02:40:51;;;;;;;0.00;0.00;;;;;;;5.38;100.00;101382.97;5112637;28;20313;-53
2023/12/17 02:43:39;;;;;;;0.00;0.00;;;;;;;5.44;100.00;101388.19;5113832;28;20183;-52
2023/12/17 02:46:26;;;;;;;0.00;0.00;;;;;;;5.57;100.00;101388.97;5113777;28;20264;-53
2023/12/17 02:49:13;;;;;;;0.10;0.10;;;;;;;5.55;100.00;101396.00;5113616;28;20185;-53
2023/12/17 02:52:00;;;;;;;0.00;0.00;;;;;;;5.58;100.00;101397.72;5113664;28;20213;-52
2023/12/17 02:54:48;;;;;;;0.00;0.00;;;;;;;5.67;100.00;101395.91;5113658;28;20205;-52
2023/12/17 02:57:36;;;;;;;0.00;0.00;;;;;;;5.91;100.00;101399.28;5112365;28;20201;-53
2023/12/17 03:00:23;;;;;;;0.10;0.10;;;;;;;5.83;100.00;101390.53;5113572;28;20193;-53
2023/12/17 03:03:10;;;;;;;0.00;0.00;;;;;;;5.69;100.00;101385.38;5113294;28;20198;-52
2023/12/17 03:05:57;;;;;;;0.10;0.10;;;;;;;6.00;100.00;101393.94;5113173;28;20262;-52
2023/12/17 03:08:44;;;;;;;0.00;0.00;;;;;;;5.91;100.00;101383.50;5113437;28;20280;-53
2023/12/17 03:11:31;;;;;;;0.00;0.00;;;;;;;5.83;100.00;101378.25;5112244;28;20683;-52
2023/12/17 03:14:20;;;;;;;0.00;0.00;;;;;;;5.84;100.00;101381.75;5113296;28;20217;-53
2023/12/17 03:17:07;;;;;;;0.00;0.00;;;;;;;5.73;100.00;101379.22;5113257;28;20193;-53
2023/12/17 03:19:53;;;;;;;0.10;0.10;;;;;;;5.72;100.00;101372.22;5113288;28;20202;-52
2023/12/17 03:22:40;;;;;;;0.00;0.00;;;;;;;5.66;100.00;101364.38;5113353;28;20269;-52
2023/12/17 03:25:27;;;;;;;0.10;0.10;;;;;;;5.85;100.00;101370.34;5111889;28;20214;-52
2023/12/17 03:28:14;;;;;;;0.00;0.00;;;;;;;5.85;100.00;101359.81;5113128;28;20238;-53
2023/12/17 03:31:02;;;;;;;0.00;0.00;;;;;;;5.72;100.00;101359.06;5115569;28;20193;-52
2023/12/17 03:33:49;;;;;;;0.00;0.00;;;;;;;5.65;100.00;101357.38;5117436;28;20216;-53
2023/12/17 03:36:36;;;;;;;0.00;0.00;;;;;;;5.66;100.00;101365.25;5117270;28;20629;-53
2023/12/17 03:39:23;;;;;;;0.00;0.00;;;;;;;5.57;100.00;101361.81;5117467;28;20202;-52
2023/12/17 03:42:10;;;;;;;0.07;0.07;;;;;;;5.46;100.00;101362.78;5115997;28;20198;-53
2023/12/17 03:44:57;;;;;;;0.00;0.00;;;;;;;5.22;100.00;101357.72;5117004;28;20522;-52
2023/12/17 03:47:48;;;;;;;0.10;0.10;;;;;;;5.38;100.00;101353.19;5117069;28;20237;-53
2023/12/17 03:50:35;;;;;;;0.00;0.00;;;;;;;5.52;100.00;101356.63;5117220;28;20194;-52
2023/12/17 03:53:22;;;;;;;0.00;0.00;;;;;;;5.36;100.00;101353.22;5116634;28;20193;-53
2023/12/17 03:56:10;;;;;;;0.10;0.10;;;;;;;5.40;100.00;101343.53;5115648;28;20669;-52
2023/12/17 03:58:57;;;;;;;0.10;0.10;;;;;;;5.47;100.00;101350.50;5116980;28;20198;-52
2023/12/17 04:01:47;;;;;;;0.10;0.10;;;;;;;5.37;100.00;101343.56;5116858;28;20198;-53
2023/12/17 04:04:35;;;;;;;0.00;0.00;;;;;;;5.41;100.00;101338.31;5116877;28;20232;-53
2023/12/17 04:07:22;;;;;;;0.00;0.00;;;;;;;5.23;100.00;101335.81;5116763;28;20268;-52
2023/12/17 04:10:09;;;;;;;0.00;0.00;;;;;;;5.42;100.00;101334.78;5116640;28;20312;-52
2023/12/17 04:12:55;;;;;;;0.00;0.00;;;;;;;5.27;100.00;101334.88;5116563;28;20194;-52
2023/12/17 04:15:42;;;;;;;0.00;0.00;;;;;;;5.44;100.00;101345.28;5116657;28;20186;-52
2023/12/17 04:18:28;;;;;;;0.00;0.00;;;;;;;5.31;100.00;101333.13;5116173;28;20329;-52
2023/12/17 04:21:17;;;;;;;0.10;0.10;;;;;;;5.32;100.00;101333.13;5116508;28;20232;-52
2023/12/17 04:24:04;;;;;;;0.00;0.00;;;;;;;5.17;100.00;101327.97;5116563;28;20715;-53
2023/12/17 04:26:51;;;;;;;0.00;0.00;;;;;;;5.19;100.00;101331.44;5114582;28;20217;-52
2023/12/17 04:29:38;;;;;;;0.00;0.00;;;;;;;5.15;100.00;101329.72;5116332;28;20707;-52
2023/12/17 04:32:24;;;;;;;0.00;0.00;;;;;;;5.00;100.00;101325.44;5116305;28;20193;-53
2023/12/17 04:35:11;;;;;;;0.10;0.10;;;;;;;4.87;100.00;101336.91;5116095;28;20191;-53
2023/12/17 04:38:00;;;;;;;0.00;0.00;;;;;;;5.06;100.00;101340.28;5116284;28;20195;-53
2023/12/17 04:40:47;;;;;;;0.00;0.00;;;;;;;5.01;100.00;101329.81;5114329;28;20244;-53
2023/12/17 04:43:33;;;;;;;0.00;0.00;;;;;;;5.05;100.00;101330.69;5115857;28;20228;-53
2023/12/17 04:46:20;;;;;;;0.00;0.00;;;;;;;5.16;100.00;101334.09;5115758;28;20303;-52
2023/12/17 04:49:07;;;;;;;0.00;0.00;;;;;;;5.13;100.00;101340.25;5115950;28;20221;-53
2023/12/17 04:51:54;;;;;;;0.00;0.00;;;;;;;5.20;100.00;101330.56;5115807;28;20220;-53
2023/12/17 04:54:42;;;;;;;0.00;0.00;;;;;;;5.15;100.00;101333.22;5115871;28;20225;-53
2023/12/17 04:57:29;;;;;;;0.10;0.10;;;;;;;4.84;100.00;101331.69;5114421;28;20217;-53
2023/12/17 05:00:16;;;;;;;0.10;0.10;;;;;;;5.01;100.00;101324.53;5115683;28;20194;-53
2023/12/17 05:03:03;;;;;;;0.00;0.00;;;;;;;4.91;100.00;101314.13;5115985;28;20189;-53
2023/12/17 05:05:54;;;;;;;0.00;0.00;;;;;;;5.01;100.00;101313.16;5115735;28;20222;-53
2023/12/17 05:08:41;;;;;;;0.10;0.10;;;;;;;5.04;100.00;101324.56;5115546;28;20410;-53
2023/12/17 05:11:29;;;;;;;0.03;0.03;;;;;;;5.06;100.00;101322.78;5114359;28;20248;-52
2023/12/17 05:14:16;;;;;;;0.10;0.10;;;;;;;5.14;100.00;101327.97;5115562;28;20325;-53
2023/12/17 05:17:03;;;;;;;0.10;0.10;;;;;;;5.09;100.00;101325.38;5115497;28;20190;-53
2023/12/17 05:19:50;;;;;;;0.00;0.00;;;;;;;5.21;100.00;101329.69;5115376;28;20210;-53
2023/12/17 05:22:37;;;;;;;0.00;0.00;;;;;;;5.13;100.00;101334.13;5115376;28;20304;-53
2023/12/17 05:25:24;;;;;;;0.00;0.00;;;;;;;5.15;100.00;101327.97;5113785;28;20202;-53
2023/12/17 05:28:12;;;;;;;0.00;0.00;;;;;;;5.26;100.00;101324.41;5115336;28;20202;-53
2023/12/17 05:30:59;;;;;;;0.00;0.00;;;;;;;4.89;100.00;101304.50;5115276;28;20190;-53
2023/12/17 05:33:46;;;;;;;0.00;0.00;;;;;;;4.88;100.00;101307.13;5114994;28;20259;-53
2023/12/17 05:36:33;;;;;;;0.00;0.00;;;;;;;5.00;100.00;101311.44;5115267;28;20316;-53
2023/12/17 05:39:20;;;;;;;0.00;0.00;;;;;;;4.79;100.00;101323.81;5115010;28;20198;-52
2023/12/17 05:42:07;;;;;;;0.00;0.00;;;;;;;4.74;100.00;101314.22;5113728;28;20284;-52
2023/12/17 05:44:56;;;;;;;0.00;0.00;;;;;;;4.75;100.00;101316.84;5114942;28;20277;-53
2023/12/17 05:47:42;;;;;;;0.00;0.00;;;;;;;4.89;100.00;101324.63;5114871;28;20186;-53
2023/12/17 05:50:30;;;;;;;0.10;0.10;;;;;;;4.88;100.00;101333.38;5114828;28;20194;-52
2023/12/17 05:53:17;;;;;;;0.00;0.00;;;;;;;5.08;100.00;101334.13;5113778;28;20205;-53
2023/12/17 05:56:07;;;;;;;0.03;0.03;;;;;;;5.00;100.00;101332.44;5113395;28;20392;-53
2023/12/17 05:58:53;;;;;;;0.00;0.00;;;;;;;5.11;100.00;101333.25;5114705;28;20240;-52
2023/12/17 06:01:43;;;;;;;0.00;0.00;;;;;;;4.92;100.00;101340.34;5111447;28;20244;-53
2023/12/17 06:04:30;;;;;;;0.00;0.00;;;;;;;4.87;100.00;101344.78;5113430;28;20236;-53
2023/12/17 06:07:17;;;;;;;0.10;0.10;;;;;;;5.22;100.00;101343.69;5113413;28;20264;-52
2023/12/17 06:10:05;;;;;;;0.00;0.00;;;;;;;5.21;100.00;101334.94;5113292;28;20256;-53
2023/12/17 06:12:52;;;;;;;0.00;0.00;;;;;;;5.27;100.00;101337.50;5113447;28;20218;-52
2023/12/17 06:15:39;;;;;;;0.00;0.00;;;;;;;5.39;100.00;101339.16;5113772;28;20259;-53
2023/12/17 06:18:27;;;;;;;0.03;0.03;;;;;;;5.49;100.00;101345.22;5114095;28;20233;-53
2023/12/17 06:21:22;;;;;;;0.00;0.00;;;;;;;5.55;100.00;101342.56;5114239;28;20248;-53
2023/12/17 06:24:08;;;;;;;0.07;0.07;;;;;;;5.02;100.00;101328.03;5114154;28;20193;-52
2023/12/17 06:26:55;;;;;;;0.10;0.10;;;;;;;4.75;100.00;101332.59;5112816;28;20221;-53
2023/12/17 06:29:42;;;;;;;0.10;0.10;;;;;;;4.64;100.00;101333.53;5114034;28;20205;-53
2023/12/17 06:32:29;;;;;;;0.00;0.00;;;;;;;4.66;100.00;101330.03;5113926;28;20202;-53
2023/12/17 06:35:17;;;;;;;0.10;0.10;;;;;;;4.51;100.00;101328.31;5113973;28;20197;-53
2023/12/17 06:38:04;;;;;;;0.00;0.00;;;;;;;4.51;100.00;101333.56;5112888;28;20277;-52
2023/12/17 06:40:53;;;;;;;0.00;0.00;;;;;;;4.47;100.00;101339.72;5112584;28;20193;-52
2023/12/17 06:43:40;;;;;;;0.00;0.00;;;;;;;4.38;100.00;101350.25;5114056;28;20194;-53
2023/12/17 06:46:27;;;;;;;0.10;0.10;;;;;;;4.37;100.00;101353.75;5113610;28;20730;-53
2023/12/17 06:49:14;;;;;;;0.00;0.00;;;;;;;4.48;100.00;101356.34;5113780;28;20189;-52
2023/12/17 06:52:02;;;;;;;0.00;0.00;;;;;;;4.67;100.00;101367.63;5113626;28;20198;-52
2023/12/17 06:54:49;;;;;;;0.00;0.00;;;;;;;4.64;100.00;101367.66;5113486;28;20310;-53
2023/12/17 06:57:36;;;;;;;0.10;0.10;;;;;;;4.41;100.00;101365.97;5113621;28;20706;-53
2023/12/17 07:00:23;;;;;;;0.10;0.10;;;;;;;4.35;100.00;101366.00;5113570;28;20193;-53
2023/12/17 07:03:10;;;;;;;0.00;0.00;;;;;;;4.25;100.00;101359.03;5113454;28;20197;-53
2023/12/17 07:05:58;;;;;;;0.00;0.00;;;;;;;4.25;100.00;101367.78;5113279;28;20186;-52
2023/12/17 07:08:48;;;;;;;0.03;0.03;;;;;;;4.15;100.00;101378.28;5113568;28;20205;-53
2023/12/17 07:11:35;;;;;;;0.00;0.00;;;;;;;4.68;100.00;101378.13;5111891;28;20316;-52
2023/12/17 07:14:21;;;;;;;0.00;0.00;;;;;;;4.49;100.00;101372.06;5113453;28;20392;-53
2023/12/17 07:17:08;;;;;;;0.00;0.00;;;;;;;4.52;100.00;101377.28;5113456;28;20312;-52
2023/12/17 07:19:55;;;;;;;0.00;0.00;;;;;;;4.38;100.00;101373.84;5113351;28;20665;-52
2023/12/17 07:22:42;;;;;;;0.00;0.00;;;;;;;4.60;100.00;101378.16;5113510;28;20210;-53
2023/12/17 07:25:30;;;;;;;0.00;0.00;;;;;;;4.65;100.00;101387.78;5111971;28;20271;-52
2023/12/17 07:28:17;;;;;;;0.00;0.00;;;;;;;4.38;100.00;101373.00;5112797;28;20234;-53
2023/12/17 07:31:04;;;;;;;0.07;0.07;;;;;;;4.49;100.00;101384.31;5113071;28;20205;-52
2023/12/17 07:33:52;;;;;;;0.00;0.00;;;;;;;4.23;100.00;101380.00;5113331;28;20235;-53
2023/12/17 07:36:38;;;;;;;0.00;0.00;;;;;;;4.13;100.00;101383.53;5113025;28;20209;-52
2023/12/17 07:39:25;;;;;;;0.10;0.10;;;;;;;4.30;100.00;101387.00;5113138;28;20198;-52
2023/12/17 07:42:14;;;;;;;0.00;0.00;;;;;;;4.34;100.00;101385.22;5111857;28;20194;-52
2023/12/17 07:45:00;;;;;;;0.10;0.10;;;;;;;4.04;100.00;101399.28;5112898;28;20264;-53
2023/12/17 07:47:47;;;;;;;0.00;0.00;;;;;;;4.08;100.00;101402.78;5113035;28;20256;-52
2023/12/17 07:50:35;;;;;;;0.03;0.03;;;;;;;4.21;100.00;101402.75;5113129;28;20194;-53
2023/12/17 07:53:21;;;;;;;0.00;0.00;;;;;;;4.39;100.00;101403.59;5112933;28;20198;-53
2023/12/17 07:56:09;;;;;;;0.00;0.00;;;;;;;4.40;100.00;101398.34;5111739;28;20259;-52
2023/12/17 07:58:57;;;;;;;0.00;0.00;;;;;;;4.17;100.00;101397.53;5112928;28;20676;-53
2023/12/17 08:01:44;;;;;;;0.10;0.10;;;;;;;4.17;100.00;101403.66;5112869;28;20202;-52
2023/12/17 08:04:30;;;;;;;0.00;0.00;;;;;;;4.42;100.00;101399.19;5113015;28;20263;-52
2023/12/17 08:07:17;;;;;;;0.00;0.00;;;;;;;4.21;100.00;101397.50;5112664;28;20300;-53
2023/12/17 08:10:06;;;;;;;0.00;0.00;;;;;;;4.09;100.00;101394.03;5112411;28;20193;-52
2023/12/17 08:12:52;;;;;;;0.00;0.00;;;;;;;4.24;100.00;101396.63;5112909;28;20195;-52
2023/12/17 08:15:41;;;;;;;0.00;0.00;;;;;;;4.55;100.00;101405.31;5112773;28;20202;-53
2023/12/17 08:18:28;;;;;;;0.00;0.00;;;;;;;4.62;100.00;101404.38;5115210;28;20289;-52
2023/12/17 08:21:15;;;;;;;0.00;0.00;;;;;;;4.70;100.00;101414.88;5116515;28;20273;-53
2023/12/17 08:24:02;;;;;;;0.00;0.00;;;;;;;4.77;100.00;101404.34;5116135;28;20737;-52
2023/12/17 08:26:48;;;;;;;0.00;0.00;;;;;;;4.35;100.00;101413.22;5114928;28;20260;-52
2023/12/17 08:29:35;;;;;;;0.00;0.00;;;;;;;4.47;100.00;101412.31;5116417;28;20194;-53
2023/12/17 08:32:31;;;;;;;0.10;0.10;;;;;;;4.35;100.00;101414.97;5116503;28;20194;-52
2023/12/17 08:35:19;;;;;;;0.00;0.00;;;;;;;4.11;100.00;101421.13;5116277;28;20194;-52
2023/12/17 08:38:06;;;;;;;0.00;0.00;;;;;;;4.32;100.00;101418.47;5116545;28;20540;-52
2023/12/17 08:40:54;;;;;;;0.00;0.00;;;;;;;4.16;100.00;101427.25;5114922;28;20217;-53
2023/12/17 08:43:41;;;;;;;0.00;0.00;;;;;;;4.12;100.00;101428.13;5116207;28;20213;-52
2023/12/17 08:46:28;;;;;;;0.03;0.03;;;;;;;4.09;100.00;101418.50;5116067;28;20281;-53
2023/12/17 08:49:16;;;;;;;0.10;0.10;;;;;;;4.23;100.00;101423.72;5115982;28;20198;-52
2023/12/17 08:52:04;;;;;;;0.00;0.00;;;;;;;4.26;100.00;101431.63;5116038;28;20194;-52
2023/12/17 08:54:50;;;;;;;0.00;0.00;;;;;;;4.49;100.00;101431.56;5116037;28;20190;-53
2023/12/17 08:57:37;;;;;;;0.00;0.00;;;;;;;4.37;100.00;101436.84;5115525;28;20193;-52
2023/12/17 09:00:25;;;;;;;0.00;0.00;;;;;;;4.30;100.00;101438.59;5115682;28;20190;-52
2023/12/17 09:03:11;;;;;;;0.10;0.10;;;;;;;4.35;100.00;101430.72;5115838;28;20334;-52
2023/12/17 09:06:01;;;;;;;0.00;0.00;;;;;;;4.18;100.00;101428.13;5115770;28;20198;-52
2023/12/17 09:08:48;;;;;;;0.00;0.00;;;;;;;4.46;100.00;101423.69;5115503;28;20218;-53
2023/12/17 09:11:35;;;;;;;0.00;0.00;;;;;;;4.45;100.00;101429.81;5114129;28;20259;-52
2023/12/17 09:14:22;;;;;;;0.00;0.00;;;;;;;4.48;100.00;101437.69;5115546;28;20259;-53
2023/12/17 09:17:09;;;;;;;0.10;0.10;;;;;;;4.56;100.00;101422.78;5115552;28;20255;-52
2023/12/17 09:19:56;;;;;;;0.00;0.00;;;;;;;4.63;100.00;101429.75;5114925;28;20198;-52
2023/12/17 09:22:44;;;;;;;0.00;0.00;;;;;;;4.36;100.00;101419.34;5114823;28;20213;-53
2023/12/17 09:25:31;;;;;;;0.00;0.00;;;;;;;4.27;100.00;101430.72;5113903;28;20217;-52
2023/12/17 09:28:18;;;;;;;0.00;0.00;;;;;;;4.43;100.00;101432.44;5114810;28;20210;-52
2023/12/17 09:31:08;;;;;;;0.00;0.00;;;;;;;4.36;100.00;101435.09;5115191;28;20867;-51
2023/12/17 09:33:55;;;;;;;0.00;0.00;;;;;;;4.44;100.00;101436.81;5115177;28;20202;-52
2023/12/17 09:36:42;;;;;;;0.00;0.00;;;;;;;4.24;100.00;101439.44;5115084;28;20197;-52
2023/12/17 09:39:30;;;;;;;0.00;0.00;;;;;;;4.67;100.00;101438.50;5115056;28;20194;-52
2023/12/17 09:42:20;;;;;;;0.00;0.00;;;;;;;4.47;100.00;101436.81;5113770;28;20202;-52
2023/12/17 09:45:08;;;;;;;0.00;0.00;;;;;;;4.41;100.00;101434.19;5114993;28;20267;-52
2023/12/17 09:47:55;;;;;;;0.10;0.10;;;;;;;4.46;100.00;101442.94;5114692;28;20296;-52
2023/12/17 09:50:43;;;;;;;0.00;0.00;;;;;;;4.35;100.00;101451.72;5114894;28;20206;-52
2023/12/17 09:53:31;;;;;;;0.00;0.00;;;;;;;4.42;100.00;101443.81;5114854;28;20198;-53
2023/12/17 09:56:19;;;;;;;0.00;0.00;;;;;;;4.33;100.00;101449.06;5113424;28;20194;-52
2023/12/17 09:59:06;;;;;;;0.00;0.00;;;;;;;4.65;100.00;101448.16;5114694;28;20241;-53
2023/12/17 10:01:53;;;;;;;0.00;0.00;;;;;;;4.49;100.00;101442.91;5114710;28;20206;-52
2023/12/17 10:04:40;;;;;;;0.00;0.00;;;;;;;4.59;100.00;101444.66;5114378;28;20278;-52
2023/12/17 10:07:27;;;;;;;0.00;0.00;;;;;;;4.63;100.00;101442.00;5114443;28;20224;-52
2023/12/17 10:10:15;;;;;;;0.00;0.00;;;;;;;4.55;100.00;101445.53;5113193;28;20320;-52
2023/12/17 10:13:03;;;;;;;0.00;0.00;;;;;;;4.68;100.00;101442.88;5114265;28;20205;-52
2023/12/17 10:15:52;;;;;;;0.00;0.00;;;;;;;4.50;100.00;101438.53;5114445;28;20263;-52
2023/12/17 10:18:39;;;;;;;0.00;0.00;;;;;;;4.67;100.00;101433.25;5113861;28;20684;-52
2023/12/17 10:21:26;;;;;;;0.00;0.00;;;;;;;5.01;100.00;101429.59;5113947;28;20286;-52
2023/12/17 10:24:14;;;;;;;0.00;0.00;;;;;;;4.96;100.00;101420.03;5113985;28;20199;-52
2023/12/17 10:27:00;;;;;;;0.00;0.00;;;;;;;4.84;100.00;101411.31;5112824;28;20194;-53
2023/12/17 10:29:51;;;;;;;0.10;0.10;;;;;;;4.78;100.00;101405.22;5113749;28;20224;-53
2023/12/17 10:32:43;;;;;;;0.00;0.00;;;;;;;4.67;100.00;101402.63;5114029;28;20320;-53
2023/12/17 10:35:31;;;;;;;0.00;0.00;;;;;;;4.77;100.00;101385.09;5114027;28;20201;-52
2023/12/17 10:38:19;;;;;;;0.00;0.00;;;;;;;4.62;100.00;101380.75;5113775;28;20255;-52
2023/12/17 10:41:07;;;;;;;0.00;0.00;;;;;;;4.59;100.00;101379.03;5112554;28;20182;-52
2023/12/17 10:43:55;;;;;;;0.00;0.00;;;;;;;4.63;100.00;101379.88;5113955;28;20190;-53
2023/12/17 10:46:44;;;;;;;0.00;0.00;;;;;;;4.75;100.00;101382.47;5113740;28;20261;-52
2023/12/17 10:49:31;;;;;;;0.00;0.00;;;;;;;4.75;100.00;101381.59;5113434;28;20246;-53
2023/12/17 10:52:21;;;;;;;0.00;0.00;;;;;;;4.89;100.00;101387.66;5113706;28;20243;-53
2023/12/17 10:55:08;;;;;;;0.00;0.00;;;;;;;4.67;100.00;101378.13;5112378;28;20280;-52
2023/12/17 10:57:58;;;;;;;0.00;0.00;;;;;;;4.70;100.00;101381.59;5113578;28;20194;-52
2023/12/17 11:00:46;;;;;;;0.00;0.00;;;;;;;4.70;100.00;101378.97;5113453;28;20245;-53
2023/12/17 11:03:35;;;;;;;0.00;0.00;;;;;;;4.69;100.00;101376.38;5113645;28;20201;-52
2023/12/17 11:06:22;;;;;;;0.10;0.10;;;;;;;4.78;100.00;101374.56;5113321;28;20241;-53
2023/12/17 11:09:10;;;;;;;0.00;0.00;;;;;;;4.93;100.00;101373.66;5113357;28;20255;-52
2023/12/17 11:11:57;;;;;;;0.03;0.03;;;;;;;5.20;100.00;101367.34;5112249;28;20193;-53
2023/12/17 11:14:44;;;;;;;0.00;0.00;;;;;;;5.26;100.00;101364.69;5113521;28;20189;-52
2023/12/17 11:17:31;;;;;;;0.10;0.10;;;;;;;5.00;100.00;101356.94;5113300;28;20682;-52
2023/12/17 11:20:20;;;;;;;0.00;0.00;;;;;;;4.75;100.00;101365.84;5113462;28;20186;-52
2023/12/17 11:23:07;;;;;;;0.10;0.10;;;;;;;5.01;100.00;101345.56;5113310;28;20235;-53
2023/12/17 11:25:55;;;;;;;0.00;0.00;;;;;;;5.04;100.00;101356.06;5112003;28;20182;-53
2023/12/17 11:28:41;;;;;;;0.00;0.00;;;;;;;5.10;100.00;101348.13;5113197;28;20213;-52
2023/12/17 11:31:28;;;;;;;0.07;0.07;;;;;;;5.12;100.00;101348.16;5113278;28;20194;-52
2023/12/17 11:34:15;;;;;;;0.00;0.00;;;;;;;5.25;100.00;101347.16;5113417;28;20668;-52
2023/12/17 11:37:05;;;;;;;0.00;0.00;;;;;;;5.14;100.00;101347.25;5112261;28;20304;-52
2023/12/17 11:39:53;;;;;;;0.10;0.10;;;;;;;5.32;100.00;101338.38;5113171;28;20194;-52
2023/12/17 11:42:40;;;;;;;0.00;0.00;;;;;;;5.17;100.00;101330.59;5113076;28;20216;-53
2023/12/17 11:45:35;;;;;;;0.00;0.00;;;;;;;5.01;100.00;101329.81;5113360;28;20198;-52
2023/12/17 11:48:23;;;;;;;0.10;0.10;;;;;;;4.99;100.00;101333.31;5112652;28;20236;-52
2023/12/17 11:51:10;;;;;;;0.00;0.00;;;;;;;5.06;100.00;101337.66;5113794;28;20279;-52
2023/12/17 11:53:59;;;;;;;0.00;0.00;;;;;;;4.93;100.00;101333.38;5117524;28;20202;-52
2023/12/17 11:56:48;;;;;;;0.00;0.00;;;;;;;5.09;100.00;101332.38;5115698;28;20254;-52
2023/12/17 11:59:35;;;;;;;0.00;0.00;;;;;;;5.02;100.00;101318.44;5117019;28;20185;-52
2023/12/17 12:02:27;;;;;;;0.00;0.00;;;;;;;5.07;100.00;101326.28;5117100;28;20182;-53
2023/12/17 12:05:16;;;;;;;0.10;0.10;;;;;;;4.97;100.00;101322.84;5116966;28;20198;-53
2023/12/17 12:08:03;;;;;;;0.10;0.10;;;;;;;5.02;100.00;101322.78;5116791;28;20194;-52
2023/12/17 12:10:51;;;;;;;0.00;0.00;;;;;;;5.00;100.00;101311.44;5115605;28;20186;-52
2023/12/17 12:13:40;;;;;;;0.10;0.10;;;;;;;4.93;100.00;101318.50;5116724;28;20673;-53
2023/12/17 12:16:28;;;;;;;0.00;0.00;;;;;;;5.00;100.00;101312.31;5116596;28;20877;-52
2023/12/17 12:19:16;;;;;;;0.00;0.00;;;;;;;5.24;100.00;101307.78;5116153;28;20761;-53
2023/12/17 12:22:12;;;;;;;0.00;0.00;;;;;;;5.36;100.00;101312.94;5116626;28;20198;-52
2023/12/17 12:24:59;;;;;;;0.10;0.10;;;;;;;5.58;100.00;101318.88;5115639;28;20198;-53
2023/12/17 12:27:47;;;;;;;0.00;0.00;;;;;;;5.46;100.00;101309.34;5115471;28;20194;-52
2023/12/17 12:30:34;;;;;;;0.00;0.00;;;;;;;4.99;100.00;101301.81;5116101;28;20221;-52
2023/12/17 12:33:21;;;;;;;0.00;0.00;;;;;;;5.03;100.00;101291.28;5116447;28;20214;-53
2023/12/17 12:36:11;;;;;;;0.00;0.00;;;;;;;5.06;100.00;101287.75;5116511;28;20186;-52
2023/12/17 12:39:02;;;;;;;0.00;0.00;;;;;;;5.52;100.00;101292.66;5116485;28;20189;-53
2023/12/17 12:41:50;;;;;;;0.00;0.00;;;;;;;5.46;100.00;101280.44;5114978;28;20248;-53
2023/12/17 12:44:39;;;;;;;0.00;0.00;;;;;;;5.59;100.00;101278.56;5116076;28;20194;-53
2023/12/17 12:47:25;;;;;;;0.00;0.00;;;;;;;5.42;100.00;101273.47;5115899;28;20195;-53
2023/12/17 12:50:12;;;;;;;0.00;0.00;;;;;;;5.07;100.00;101264.09;5115864;28;20221;-52
2023/12/17 12:52:59;;;;;;;0.00;0.00;;;;;;;5.02;100.00;101257.13;5116112;28;20198;-53
2023/12/17 12:56:01;;;;;;;0.00;0.00;;;;;;;5.10;100.00;101260.56;5114525;28;20277;-52
2023/12/17 12:58:48;;;;;;;0.00;0.00;;;;;;;4.89;100.00;101251.97;5115964;28;20220;-52